sensor_id;sensor_type;location;lat;lon;timestamp;temperature;humidity
12434;DHT22;6281;49.038;8.372;2023-12-22T00:02:24;9.50;99.90
12434;DHT22;6281;49.038;8.372;2023-12-22T00:04:51;9.50;99.90
12434;DHT22;6281;49.038;8.372;2023-12-22T00:07:18;9.60;99.90
12434;DHT22;6281;49.038;8.372;2023-12-22T00:09:47;9.50;99.90
12434;DHT22;6281;49.038;8.372;2023-12-22T00:12:14;9.30;99.90
12434;DHT22;6281;49.038;8.372;2023-12-22T00:14:41;9.30;99.90
12434;DHT22;6281;49.038;8.372;2023-12-22T00:17:08;9.10;99.90
12434;DHT22;6281;49.038;8.372;2023-12-22T00:19:35;9.10;99.90
12434;DHT22;6281;49.038;8.372;2023-12-22T00:22:02;9.10;99.90
12434;DHT22;6281;49.038;8.372;2023-12-22T00:24:29;9.10;99.90
12434;DHT22;6281;49.038;8.372;2023-12-22T00:26:58;9.20;99.90
12434;DHT22;6281;49.038;8.372;2023-12-22T00:29:25;9.20;99.90
12434;DHT22;6281;49.038;8.372;2023-12-22T00:31:53;9.20;99.90
12434;DHT22;6281;49.038;8.372;2023-12-22T00:34:21;9.20;99.90
12434;DHT22;6281;49.038;8.372;2023-12-22T00:36:48;9.30;99.90
12434;DHT22;6281;49.038;8.372;2023-12-22T00:39:15;9.30;99.90
12434;DHT22;6281;49.038;8.372;2023-12-22T00:41:42;9.30;99.90
12434;DHT22;6281;49.038;8.372;2023-12-22T00:44:11;9.30;99.90
12434;DHT22;6281;49.038;8.372;2023-12-22T00:46:38;9.40;99.90
12434;DHT22;6281;49.038;8.372;2023-12-22T00:49:04;9.50;99.90
12434;DHT22;6281;49.038;8.372;2023-12-22T00:51:31;9.40;99.90
12434;DHT22;6281;49.038;8.372;2023-12-22T00:53:58;9.50;99.90
12434;DHT22;6281;49.038;8.372;2023-12-22T00:56:25;9.60;99.90
12434;DHT22;6281;49.038;8.372;2023-12-22T00:58:52;9.50;99.90
12434;DHT22;6281;49.038;8.372;2023-12-22T01:01:20;9.40;99.90
12434;DHT22;6281;49.038;8.372;2023-12-22T01:03:47;9.40;99.90
12434;DHT22;6281;49.038;8.372;2023-12-22T01:06:14;9.40;99.90
12434;DHT22;6281;49.038;8.372;2023-12-22T01:08:41;9.50;99.90
12434;DHT22;6281;49.038;8.372;2023-12-22T01:11:08;9.40;99.90
12434;DHT22;6281;49.038;8.372;2023-12-22T01:13:35;9.50;99.90
12434;DHT22;6281;49.038;8.372;2023-12-22T01:16:02;9.30;99.90
12434;DHT22;6281;49.038;8.372;2023-12-22T01:18:30;9.30;99.90
12434;DHT22;6281;49.038;8.372;2023-12-22T01:20:57;9.40;99.90
12434;DHT22;6281;49.038;8.372;2023-12-22T01:23:24;9.50;99.90
12434;DHT22;6281;49.038;8.372;2023-12-22T01:25:52;9.40;99.90
12434;DHT22;6281;49.038;8.372;2023-12-22T01:28:18;9.40;99.90
12434;DHT22;6281;49.038;8.372;2023-12-22T01:30:45;9.30;99.90
12434;DHT22;6281;49.038;8.372;2023-12-22T01:33:13;9.30;99.90
12434;DHT22;6281;49.038;8.372;2023-12-22T01:35:41;9.40;99.90
12434;DHT22;6281;49.038;8.372;2023-12-22T01:38:08;9.40;99.90
12434;DHT22;6281;49.038;8.372;2023-12-22T01:40:35;9.30;99.90
12434;DHT22;6281;49.038;8.372;2023-12-22T01:43:02;9.40;99.90
12434;DHT22;6281;49.038;8.372;2023-12-22T01:45:29;9.50;99.90
12434;DHT22;6281;49.038;8.372;2023-12-22T01:47:57;9.40;99.90
12434;DHT22;6281;49.038;8.372;2023-12-22T01:50:24;9.40;99.90
12434;DHT22;6281;49.038;8.372;2023-12-22T01:52:53;9.30;99.90
12434;DHT22;6281;49.038;8.372;2023-12-22T01:55:20;9.40;99.90
12434;DHT22;6281;49.038;8.372;2023-12-22T01:57:47;9.30;99.90
12434;DHT22;6281;49.038;8.372;2023-12-22T02:00:16;9.20;99.90
12434;DHT22;6281;49.038;8.372;2023-12-22T02:02:43;9.20;99.90
12434;DHT22;6281;49.038;8.372;2023-12-22T02:05:10;9.10;99.90
12434;DHT22;6281;49.038;8.372;2023-12-22T02:07:38;9.10;99.90
12434;DHT22;6281;49.038;8.372;2023-12-22T02:10:09;9.20;99.90
12434;DHT22;6281;49.038;8.372;2023-12-22T02:12:36;9.20;99.90
12434;DHT22;6281;49.038;8.372;2023-12-22T02:15:04;9.30;99.90
12434;DHT22;6281;49.038;8.372;2023-12-22T02:17:39;9.10;99.90
12434;DHT22;6281;49.038;8.372;2023-12-22T02:20:09;9.10;99.90
12434;DHT22;6281;49.038;8.372;2023-12-22T02:22:38;9.10;99.90
12434;DHT22;6281;49.038;8.372;2023-12-22T02:25:06;9.20;99.90
12434;DHT22;6281;49.038;8.372;2023-12-22T02:27:37;9.10;99.90
12434;DHT22;6281;49.038;8.372;2023-12-22T02:30:09;9.00;99.90
12434;DHT22;6281;49.038;8.372;2023-12-22T02:32:41;9.00;99.90
12434;DHT22;6281;49.038;8.372;2023-12-22T02:35:10;9.00;99.90
12434;DHT22;6281;49.038;8.372;2023-12-22T02:37:40;9.00;99.90
12434;DHT22;6281;49.038;8.372;2023-12-22T02:40:08;9.00;99.90
12434;DHT22;6281;49.038;8.372;2023-12-22T02:42:36;9.00;99.90
12434;DHT22;6281;49.038;8.372;2023-12-22T02:45:04;9.00;99.90
12434;DHT22;6281;49.038;8.372;2023-12-22T02:47:31;9.00;99.90
12434;DHT22;6281;49.038;8.372;2023-12-22T02:49:59;9.00;99.90
12434;DHT22;6281;49.038;8.372;2023-12-22T02:52:25;8.90;99.90
12434;DHT22;6281;49.038;8.372;2023-12-22T02:54:54;8.90;99.90
12434;DHT22;6281;49.038;8.372;2023-12-22T02:57:20;8.90;99.90
12434;DHT22;6281;49.038;8.372;2023-12-22T02:59:47;8.90;99.90
12434;DHT22;6281;49.038;8.372;2023-12-22T03:02:14;8.80;99.90
12434;DHT22;6281;49.038;8.372;2023-12-22T03:04:40;8.80;99.90
12434;DHT22;6281;49.038;8.372;2023-12-22T03:07:07;9.00;99.90
12434;DHT22;6281;49.038;8.372;2023-12-22T03:09:34;9.00;99.90
12434;DHT22;6281;49.038;8.372;2023-12-22T03:12:02;9.00;99.90
12434;DHT22;6281;49.038;8.372;2023-12-22T03:14:29;9.10;99.90
12434;DHT22;6281;49.038;8.372;2023-12-22T03:16:57;9.10;99.90
12434;DHT22;6281;49.038;8.372;2023-12-22T03:19:23;9.10;99.90
12434;DHT22;6281;49.038;8.372;2023-12-22T03:21:50;9.10;99.90
12434;DHT22;6281;49.038;8.372;2023-12-22T03:24:17;9.20;99.90
12434;DHT22;6281;49.038;8.372;2023-12-22T03:26:45;9.20;99.90
12434;DHT22;6281;49.038;8.372;2023-12-22T03:29:13;9.10;99.90
12434;DHT22;6281;49.038;8.372;2023-12-22T03:31:40;9.20;99.90
12434;DHT22;6281;49.038;8.372;2023-12-22T03:34:07;9.20;99.90
12434;DHT22;6281;49.038;8.372;2023-12-22T03:36:34;9.10;99.90
12434;DHT22;6281;49.038;8.372;2023-12-22T03:39:01;9.20;99.90
12434;DHT22;6281;49.038;8.372;2023-12-22T03:41:29;9.10;99.90
12434;DHT22;6281;49.038;8.372;2023-12-22T03:43:56;9.10;99.90
12434;DHT22;6281;49.038;8.372;2023-12-22T03:46:24;9.00;99.90
12434;DHT22;6281;49.038;8.372;2023-12-22T03:48:51;8.80;99.90
12434;DHT22;6281;49.038;8.372;2023-12-22T03:51:18;8.80;99.90
12434;DHT22;6281;49.038;8.372;2023-12-22T03:53:45;8.80;99.90
12434;DHT22;6281;49.038;8.372;2023-12-22T03:56:12;9.00;99.90
12434;DHT22;6281;49.038;8.372;2023-12-22T03:58:39;9.00;99.90
12434;DHT22;6281;49.038;8.372;2023-12-22T04:01:06;8.90;99.90
12434;DHT22;6281;49.038;8.372;2023-12-22T04:03:34;8.90;99.90
12434;DHT22;6281;49.038;8.372;2023-12-22T04:06:02;8.90;99.90
12434;DHT22;6281;49.038;8.372;2023-12-22T04:08:29;8.80;99.90
12434;DHT22;6281;49.038;8.372;2023-12-22T04:10:56;8.70;99.90
12434;DHT22;6281;49.038;8.372;2023-12-22T04:13:23;8.70;99.90
12434;DHT22;6281;49.038;8.372;2023-12-22T04:15:50;8.80;99.90
12434;DHT22;6281;49.038;8.372;2023-12-22T04:18:17;8.70;99.90
12434;DHT22;6281;49.038;8.372;2023-12-22T04:20:45;8.60;99.90
12434;DHT22;6281;49.038;8.372;2023-12-22T04:23:15;8.60;99.90
12434;DHT22;6281;49.038;8.372;2023-12-22T04:25:42;8.50;99.90
12434;DHT22;6281;49.038;8.372;2023-12-22T04:28:09;8.50;99.90
12434;DHT22;6281;49.038;8.372;2023-12-22T04:30:36;8.50;99.90
12434;DHT22;6281;49.038;8.372;2023-12-22T04:33:04;8.50;99.90
12434;DHT22;6281;49.038;8.372;2023-12-22T04:35:30;8.40;99.90
12434;DHT22;6281;49.038;8.372;2023-12-22T04:37:59;8.40;99.90
12434;DHT22;6281;49.038;8.372;2023-12-22T04:40:26;8.50;99.90
12434;DHT22;6281;49.038;8.372;2023-12-22T04:42:53;8.50;99.90
12434;DHT22;6281;49.038;8.372;2023-12-22T04:45:20;8.50;99.90
12434;DHT22;6281;49.038;8.372;2023-12-22T04:47:47;8.60;99.90
12434;DHT22;6281;49.038;8.372;2023-12-22T04:50:14;8.50;99.90
12434;DHT22;6281;49.038;8.372;2023-12-22T04:52:41;8.50;99.90
12434;DHT22;6281;49.038;8.372;2023-12-22T04:55:09;8.60;99.90
12434;DHT22;6281;49.038;8.372;2023-12-22T04:57:36;8.60;99.90
12434;DHT22;6281;49.038;8.372;2023-12-22T05:00:04;8.70;99.90
12434;DHT22;6281;49.038;8.372;2023-12-22T05:02:31;8.70;99.90
12434;DHT22;6281;49.038;8.372;2023-12-22T05:04:58;8.80;99.90
12434;DHT22;6281;49.038;8.372;2023-12-22T05:07:26;8.80;99.90
12434;DHT22;6281;49.038;8.372;2023-12-22T05:09:53;8.80;99.90
12434;DHT22;6281;49.038;8.372;2023-12-22T05:12:22;8.80;99.90
12434;DHT22;6281;49.038;8.372;2023-12-22T05:14:49;8.80;99.90
12434;DHT22;6281;49.038;8.372;2023-12-22T05:17:16;8.90;99.90
12434;DHT22;6281;49.038;8.372;2023-12-22T05:19:43;8.90;99.90
12434;DHT22;6281;49.038;8.372;2023-12-22T05:22:10;8.90;99.90
12434;DHT22;6281;49.038;8.372;2023-12-22T05:24:37;9.00;99.90
12434;DHT22;6281;49.038;8.372;2023-12-22T05:27:04;9.00;99.90
12434;DHT22;6281;49.038;8.372;2023-12-22T05:29:33;9.00;99.90
12434;DHT22;6281;49.038;8.372;2023-12-22T05:32:00;9.10;99.90
12434;DHT22;6281;49.038;8.372;2023-12-22T05:34:27;9.20;99.90
12434;DHT22;6281;49.038;8.372;2023-12-22T05:36:53;9.00;99.90
12434;DHT22;6281;49.038;8.372;2023-12-22T05:39:20;9.00;99.90
12434;DHT22;6281;49.038;8.372;2023-12-22T05:41:47;9.10;99.90
12434;DHT22;6281;49.038;8.372;2023-12-22T05:44:14;9.20;99.90
12434;DHT22;6281;49.038;8.372;2023-12-22T05:46:42;9.30;99.90
12434;DHT22;6281;49.038;8.372;2023-12-22T05:49:09;9.30;99.90
12434;DHT22;6281;49.038;8.372;2023-12-22T05:51:37;9.20;99.90
12434;DHT22;6281;49.038;8.372;2023-12-22T05:54:05;9.30;99.90
12434;DHT22;6281;49.038;8.372;2023-12-22T05:56:31;9.40;99.90
12434;DHT22;6281;49.038;8.372;2023-12-22T05:58:59;9.30;99.90
12434;DHT22;6281;49.038;8.372;2023-12-22T06:01:26;9.30;99.90
12434;DHT22;6281;49.038;8.372;2023-12-22T06:03:54;9.30;99.90
12434;DHT22;6281;49.038;8.372;2023-12-22T06:06:22;9.20;99.90
12434;DHT22;6281;49.038;8.372;2023-12-22T06:08:49;9.30;99.90
12434;DHT22;6281;49.038;8.372;2023-12-22T06:11:16;9.20;99.90
12434;DHT22;6281;49.038;8.372;2023-12-22T06:13:43;9.20;99.90
12434;DHT22;6281;49.038;8.372;2023-12-22T06:16:13;9.30;99.90
12434;DHT22;6281;49.038;8.372;2023-12-22T06:18:40;9.20;99.90
12434;DHT22;6281;49.038;8.372;2023-12-22T06:21:09;9.20;99.90
12434;DHT22;6281;49.038;8.372;2023-12-22T06:23:36;9.20;99.90
12434;DHT22;6281;49.038;8.372;2023-12-22T06:26:08;9.30;99.90
12434;DHT22;6281;49.038;8.372;2023-12-22T06:28:35;9.20;99.90
12434;DHT22;6281;49.038;8.372;2023-12-22T06:31:03;9.20;99.90
12434;DHT22;6281;49.038;8.372;2023-12-22T06:33:30;9.10;99.90
12434;DHT22;6281;49.038;8.372;2023-12-22T06:35:57;9.10;99.90
12434;DHT22;6281;49.038;8.372;2023-12-22T06:38:25;9.10;99.90
12434;DHT22;6281;49.038;8.372;2023-12-22T06:40:53;9.00;99.90
12434;DHT22;6281;49.038;8.372;2023-12-22T06:43:20;9.00;99.90
12434;DHT22;6281;49.038;8.372;2023-12-22T06:45:48;9.00;99.90
12434;DHT22;6281;49.038;8.372;2023-12-22T06:48:15;9.00;99.90
12434;DHT22;6281;49.038;8.372;2023-12-22T06:50:42;9.00;99.90
12434;DHT22;6281;49.038;8.372;2023-12-22T06:53:10;8.80;99.90
12434;DHT22;6281;49.038;8.372;2023-12-22T06:55:38;8.80;99.90
12434;DHT22;6281;49.038;8.372;2023-12-22T06:58:05;8.80;99.90
12434;DHT22;6281;49.038;8.372;2023-12-22T07:00:32;8.80;99.90
12434;DHT22;6281;49.038;8.372;2023-12-22T07:02:59;8.80;99.90
12434;DHT22;6281;49.038;8.372;2023-12-22T07:05:31;8.80;99.90
12434;DHT22;6281;49.038;8.372;2023-12-22T07:07:58;8.70;99.90
12434;DHT22;6281;49.038;8.372;2023-12-22T07:10:25;8.70;99.90
12434;DHT22;6281;49.038;8.372;2023-12-22T07:12:54;8.70;99.90
12434;DHT22;6281;49.038;8.372;2023-12-22T07:15:21;8.70;99.90
12434;DHT22;6281;49.038;8.372;2023-12-22T07:17:48;8.60;99.90
12434;DHT22;6281;49.038;8.372;2023-12-22T07:20:15;8.50;99.90
12434;DHT22;6281;49.038;8.372;2023-12-22T07:22:44;8.60;99.90
12434;DHT22;6281;49.038;8.372;2023-12-22T07:25:12;8.50;99.90
12434;DHT22;6281;49.038;8.372;2023-12-22T07:27:39;8.50;99.90
12434;DHT22;6281;49.038;8.372;2023-12-22T07:30:08;8.40;99.90
12434;DHT22;6281;49.038;8.372;2023-12-22T07:32:37;8.30;99.90
12434;DHT22;6281;49.038;8.372;2023-12-22T07:35:04;8.20;99.90
12434;DHT22;6281;49.038;8.372;2023-12-22T07:37:35;8.10;99.90
12434;DHT22;6281;49.038;8.372;2023-12-22T07:40:02;8.10;99.90
12434;DHT22;6281;49.038;8.372;2023-12-22T07:42:29;8.00;99.90
12434;DHT22;6281;49.038;8.372;2023-12-22T07:44:56;7.90;99.90
12434;DHT22;6281;49.038;8.372;2023-12-22T07:47:25;7.80;99.90
12434;DHT22;6281;49.038;8.372;2023-12-22T07:49:52;7.90;99.90
12434;DHT22;6281;49.038;8.372;2023-12-22T07:52:19;7.70;99.90
12434;DHT22;6281;49.038;8.372;2023-12-22T07:54:46;7.70;99.90
12434;DHT22;6281;49.038;8.372;2023-12-22T07:57:13;7.80;99.90
12434;DHT22;6281;49.038;8.372;2023-12-22T07:59:40;7.70;99.90
12434;DHT22;6281;49.038;8.372;2023-12-22T08:02:07;7.80;99.90
12434;DHT22;6281;49.038;8.372;2023-12-22T08:04:36;7.80;99.90
12434;DHT22;6281;49.038;8.372;2023-12-22T08:07:03;7.90;99.90
12434;DHT22;6281;49.038;8.372;2023-12-22T08:09:30;7.90;99.90
12434;DHT22;6281;49.038;8.372;2023-12-22T08:11:58;8.00;99.90
12434;DHT22;6281;49.038;8.372;2023-12-22T08:14:25;7.90;99.90
12434;DHT22;6281;49.038;8.372;2023-12-22T08:16:52;7.90;99.90
12434;DHT22;6281;49.038;8.372;2023-12-22T08:19:19;8.00;99.90
12434;DHT22;6281;49.038;8.372;2023-12-22T08:21:48;8.10;99.90
12434;DHT22;6281;49.038;8.372;2023-12-22T08:24:15;8.20;99.90
12434;DHT22;6281;49.038;8.372;2023-12-22T08:26:42;8.30;99.90
12434;DHT22;6281;49.038;8.372;2023-12-22T08:29:09;8.30;99.90
12434;DHT22;6281;49.038;8.372;2023-12-22T08:31:36;8.50;99.90
12434;DHT22;6281;49.038;8.372;2023-12-22T08:34:03;8.60;99.90
12434;DHT22;6281;49.038;8.372;2023-12-22T08:36:30;8.60;99.90
12434;DHT22;6281;49.038;8.372;2023-12-22T08:38:59;8.60;99.90
12434;DHT22;6281;49.038;8.372;2023-12-22T08:41:26;8.60;99.90
12434;DHT22;6281;49.038;8.372;2023-12-22T08:43:53;8.60;99.90
12434;DHT22;6281;49.038;8.372;2023-12-22T08:46:20;8.60;99.90
12434;DHT22;6281;49.038;8.372;2023-12-22T08:48:47;8.70;99.90
12434;DHT22;6281;49.038;8.372;2023-12-22T08:51:14;8.70;99.90
12434;DHT22;6281;49.038;8.372;2023-12-22T08:53:41;8.70;99.90
12434;DHT22;6281;49.038;8.372;2023-12-22T08:56:09;8.80;99.90
12434;DHT22;6281;49.038;8.372;2023-12-22T08:58:36;8.80;99.90
12434;DHT22;6281;49.038;8.372;2023-12-22T09:01:03;8.80;99.90
12434;DHT22;6281;49.038;8.372;2023-12-22T09:03:33;8.80;99.90
12434;DHT22;6281;49.038;8.372;2023-12-22T09:06:01;8.80;99.90
12434;DHT22;6281;49.038;8.372;2023-12-22T09:08:28;8.90;99.90
12434;DHT22;6281;49.038;8.372;2023-12-22T09:10:55;8.90;99.90
12434;DHT22;6281;49.038;8.372;2023-12-22T09:13:23;9.00;99.90
12434;DHT22;6281;49.038;8.372;2023-12-22T09:15:51;9.00;99.90
12434;DHT22;6281;49.038;8.372;2023-12-22T09:18:19;9.00;99.90
12434;DHT22;6281;49.038;8.372;2023-12-22T09:20:46;9.00;99.90
12434;DHT22;6281;49.038;8.372;2023-12-22T09:23:12;9.00;99.90
12434;DHT22;6281;49.038;8.372;2023-12-22T09:25:39;9.00;99.90
12434;DHT22;6281;49.038;8.372;2023-12-22T09:28:06;9.00;99.90
12434;DHT22;6281;49.038;8.372;2023-12-22T09:30:35;9.10;99.90
12434;DHT22;6281;49.038;8.372;2023-12-22T09:33:02;9.00;99.90
12434;DHT22;6281;49.038;8.372;2023-12-22T09:35:29;9.10;99.90
12434;DHT22;6281;49.038;8.372;2023-12-22T09:37:56;9.10;99.90
12434;DHT22;6281;49.038;8.372;2023-12-22T09:40:24;9.20;99.90
12434;DHT22;6281;49.038;8.372;2023-12-22T09:42:54;9.20;99.90
12434;DHT22;6281;49.038;8.372;2023-12-22T09:45:22;9.20;99.90
12434;DHT22;6281;49.038;8.372;2023-12-22T09:47:50;9.30;99.90
12434;DHT22;6281;49.038;8.372;2023-12-22T09:50:18;9.20;99.90
12434;DHT22;6281;49.038;8.372;2023-12-22T09:52:46;9.30;99.90
12434;DHT22;6281;49.038;8.372;2023-12-22T09:55:13;9.30;99.90
12434;DHT22;6281;49.038;8.372;2023-12-22T09:57:41;9.30;99.90
12434;DHT22;6281;49.038;8.372;2023-12-22T10:00:09;9.30;99.90
12434;DHT22;6281;49.038;8.372;2023-12-22T10:02:39;9.20;99.90
12434;DHT22;6281;49.038;8.372;2023-12-22T10:05:08;9.30;99.90
12434;DHT22;6281;49.038;8.372;2023-12-22T10:07:35;9.30;99.90
12434;DHT22;6281;49.038;8.372;2023-12-22T10:10:04;9.30;99.90
12434;DHT22;6281;49.038;8.372;2023-12-22T10:12:32;9.30;99.90
12434;DHT22;6281;49.038;8.372;2023-12-22T10:15:00;9.30;99.90
12434;DHT22;6281;49.038;8.372;2023-12-22T10:17:29;9.30;99.90
12434;DHT22;6281;49.038;8.372;2023-12-22T10:19:56;9.30;99.90
12434;DHT22;6281;49.038;8.372;2023-12-22T10:22:25;9.30;99.90
12434;DHT22;6281;49.038;8.372;2023-12-22T10:24:51;9.20;99.90
12434;DHT22;6281;49.038;8.372;2023-12-22T10:27:19;9.10;99.90
12434;DHT22;6281;49.038;8.372;2023-12-22T10:29:48;8.90;99.90
12434;DHT22;6281;49.038;8.372;2023-12-22T10:32:16;8.80;99.90
12434;DHT22;6281;49.038;8.372;2023-12-22T10:34:43;8.80;99.90
12434;DHT22;6281;49.038;8.372;2023-12-22T10:37:10;8.70;99.90
12434;DHT22;6281;49.038;8.372;2023-12-22T10:39:40;8.60;99.90
12434;DHT22;6281;49.038;8.372;2023-12-22T10:42:07;8.60;99.90
12434;DHT22;6281;49.038;8.372;2023-12-22T10:44:40;8.50;99.90
12434;DHT22;6281;49.038;8.372;2023-12-22T10:47:07;8.50;99.90
12434;DHT22;6281;49.038;8.372;2023-12-22T10:49:34;8.40;99.90
12434;DHT22;6281;49.038;8.372;2023-12-22T10:52:03;8.30;99.90
12434;DHT22;6281;49.038;8.372;2023-12-22T10:54:30;8.30;99.90
12434;DHT22;6281;49.038;8.372;2023-12-22T10:56:59;8.20;99.90
12434;DHT22;6281;49.038;8.372;2023-12-22T10:59:28;8.20;99.90
12434;DHT22;6281;49.038;8.372;2023-12-22T11:01:57;8.20;99.90
12434;DHT22;6281;49.038;8.372;2023-12-22T11:04:29;8.20;99.90
12434;DHT22;6281;49.038;8.372;2023-12-22T11:06:58;8.20;99.90
12434;DHT22;6281;49.038;8.372;2023-12-22T11:09:26;8.20;99.90
12434;DHT22;6281;49.038;8.372;2023-12-22T11:12:00;8.20;99.90
12434;DHT22;6281;49.038;8.372;2023-12-22T11:14:29;8.20;99.90
12434;DHT22;6281;49.038;8.372;2023-12-22T11:16:59;8.20;99.90
12434;DHT22;6281;49.038;8.372;2023-12-22T11:19:27;8.10;99.90
12434;DHT22;6281;49.038;8.372;2023-12-22T11:21:56;8.20;99.90
12434;DHT22;6281;49.038;8.372;2023-12-22T11:24:28;8.10;99.90
12434;DHT22;6281;49.038;8.372;2023-12-22T11:26:59;8.10;99.90
12434;DHT22;6281;49.038;8.372;2023-12-22T11:29:26;8.10;99.90
12434;DHT22;6281;49.038;8.372;2023-12-22T11:31:54;8.20;99.90
12434;DHT22;6281;49.038;8.372;2023-12-22T11:34:23;8.20;99.90
12434;DHT22;6281;49.038;8.372;2023-12-22T11:36:53;8.20;99.90
12434;DHT22;6281;49.038;8.372;2023-12-22T11:39:21;8.20;99.90
12434;DHT22;6281;49.038;8.372;2023-12-22T11:41:49;8.20;99.90
12434;DHT22;6281;49.038;8.372;2023-12-22T11:44:19;8.20;99.90
12434;DHT22;6281;49.038;8.372;2023-12-22T11:46:46;8.30;99.90
12434;DHT22;6281;49.038;8.372;2023-12-22T11:49:14;8.30;99.90
12434;DHT22;6281;49.038;8.372;2023-12-22T11:51:41;8.40;99.90
12434;DHT22;6281;49.038;8.372;2023-12-22T11:57:29;8.30;99.90
12434;DHT22;6281;49.038;8.372;2023-12-22T12:00:00;8.30;99.90
12434;DHT22;6281;49.038;8.372;2023-12-22T12:02:31;8.20;99.90
12434;DHT22;6281;49.038;8.372;2023-12-22T12:04:59;8.30;99.90
12434;DHT22;6281;49.038;8.372;2023-12-22T12:07:41;8.30;99.90
12434;DHT22;6281;49.038;8.372;2023-12-22T12:10:10;8.30;99.90
12434;DHT22;6281;49.038;8.372;2023-12-22T12:12:37;8.40;99.90
12434;DHT22;6281;49.038;8.372;2023-12-22T12:15:12;8.40;99.90
12434;DHT22;6281;49.038;8.372;2023-12-22T12:17:41;8.40;99.90
12434;DHT22;6281;49.038;8.372;2023-12-22T12:20:08;8.40;99.90
12434;DHT22;6281;49.038;8.372;2023-12-22T12:22:39;8.50;99.90
12434;DHT22;6281;49.038;8.372;2023-12-22T12:25:09;8.50;99.90
12434;DHT22;6281;49.038;8.372;2023-12-22T12:27:36;8.50;99.90
12434;DHT22;6281;49.038;8.372;2023-12-22T12:30:13;8.50;99.90
12434;DHT22;6281;49.038;8.372;2023-12-22T12:32:42;8.50;99.90
12434;DHT22;6281;49.038;8.372;2023-12-22T12:35:10;8.60;99.90
12434;DHT22;6281;49.038;8.372;2023-12-22T12:37:38;8.60;99.90
12434;DHT22;6281;49.038;8.372;2023-12-22T12:40:07;8.70;99.90
12434;DHT22;6281;49.038;8.372;2023-12-22T12:42:36;8.70;99.90
12434;DHT22;6281;49.038;8.372;2023-12-22T12:45:04;8.70;99.90
12434;DHT22;6281;49.038;8.372;2023-12-22T12:47:32;8.80;99.90
12434;DHT22;6281;49.038;8.372;2023-12-22T12:49:59;8.70;99.90
12434;DHT22;6281;49.038;8.372;2023-12-22T12:52:26;8.70;99.90
12434;DHT22;6281;49.038;8.372;2023-12-22T12:54:53;8.80;99.90
12434;DHT22;6281;49.038;8.372;2023-12-22T12:57:20;8.80;99.90
12434;DHT22;6281;49.038;8.372;2023-12-22T12:59:48;8.80;99.90
12434;DHT22;6281;49.038;8.372;2023-12-22T13:02:15;8.80;99.90
12434;DHT22;6281;49.038;8.372;2023-12-22T13:04:43;8.90;99.90
12434;DHT22;6281;49.038;8.372;2023-12-22T13:07:10;8.90;99.90
12434;DHT22;6281;49.038;8.372;2023-12-22T13:09:38;8.90;99.90
12434;DHT22;6281;49.038;8.372;2023-12-22T13:12:07;9.00;99.90
12434;DHT22;6281;49.038;8.372;2023-12-22T13:14:34;9.10;99.90
12434;DHT22;6281;49.038;8.372;2023-12-22T13:17:01;9.20;99.90
12434;DHT22;6281;49.038;8.372;2023-12-22T13:19:28;9.20;99.90
12434;DHT22;6281;49.038;8.372;2023-12-22T13:21:57;9.30;99.90
12434;DHT22;6281;49.038;8.372;2023-12-22T13:24:23;9.30;99.90
12434;DHT22;6281;49.038;8.372;2023-12-22T13:26:59;9.40;99.90
12434;DHT22;6281;49.038;8.372;2023-12-22T13:29:26;9.30;99.90
12434;DHT22;6281;49.038;8.372;2023-12-22T13:31:54;9.40;99.90
12434;DHT22;6281;49.038;8.372;2023-12-22T13:34:22;9.40;99.90
12434;DHT22;6281;49.038;8.372;2023-12-22T13:36:50;9.50;99.90
12434;DHT22;6281;49.038;8.372;2023-12-22T13:39:18;9.50;99.90
12434;DHT22;6281;49.038;8.372;2023-12-22T13:41:45;9.50;99.90
12434;DHT22;6281;49.038;8.372;2023-12-22T13:44:12;9.50;99.90
12434;DHT22;6281;49.038;8.372;2023-12-22T13:46:40;9.50;99.90
12434;DHT22;6281;49.038;8.372;2023-12-22T13:49:08;9.50;99.90
12434;DHT22;6281;49.038;8.372;2023-12-22T13:51:40;9.50;99.90
12434;DHT22;6281;49.038;8.372;2023-12-22T13:54:07;9.60;99.90
12434;DHT22;6281;49.038;8.372;2023-12-22T13:56:36;9.50;99.90
12434;DHT22;6281;49.038;8.372;2023-12-22T13:59:05;9.50;99.90
12434;DHT22;6281;49.038;8.372;2023-12-22T14:01:33;9.50;99.90
12434;DHT22;6281;49.038;8.372;2023-12-22T14:04:00;9.60;99.90
12434;DHT22;6281;49.038;8.372;2023-12-22T14:06:27;9.60;99.90
12434;DHT22;6281;49.038;8.372;2023-12-22T14:08:54;9.70;99.90
12434;DHT22;6281;49.038;8.372;2023-12-22T14:11:22;9.60;99.90
12434;DHT22;6281;49.038;8.372;2023-12-22T14:13:50;9.70;99.90
12434;DHT22;6281;49.038;8.372;2023-12-22T14:16:17;9.70;99.90
12434;DHT22;6281;49.038;8.372;2023-12-22T14:18:44;9.70;99.90
12434;DHT22;6281;49.038;8.372;2023-12-22T14:21:11;9.70;99.90
12434;DHT22;6281;49.038;8.372;2023-12-22T14:23:38;9.80;99.90
12434;DHT22;6281;49.038;8.372;2023-12-22T14:26:05;9.80;99.90
12434;DHT22;6281;49.038;8.372;2023-12-22T14:28:32;9.80;99.90
12434;DHT22;6281;49.038;8.372;2023-12-22T14:31:00;9.80;99.90
12434;DHT22;6281;49.038;8.372;2023-12-22T14:33:27;9.80;99.90
12434;DHT22;6281;49.038;8.372;2023-12-22T14:35:54;9.90;99.90
12434;DHT22;6281;49.038;8.372;2023-12-22T14:38:21;9.90;99.90
12434;DHT22;6281;49.038;8.372;2023-12-22T14:40:48;9.90;99.90
12434;DHT22;6281;49.038;8.372;2023-12-22T14:43:15;9.90;99.90
12434;DHT22;6281;49.038;8.372;2023-12-22T14:45:42;9.90;99.90
12434;DHT22;6281;49.038;8.372;2023-12-22T14:48:10;9.80;99.90
12434;DHT22;6281;49.038;8.372;2023-12-22T14:50:37;9.90;99.90
12434;DHT22;6281;49.038;8.372;2023-12-22T14:53:04;9.90;99.90
12434;DHT22;6281;49.038;8.372;2023-12-22T14:55:32;9.90;99.90
12434;DHT22;6281;49.038;8.372;2023-12-22T14:57:59;9.80;99.90
12434;DHT22;6281;49.038;8.372;2023-12-22T15:00:26;9.90;99.90
12434;DHT22;6281;49.038;8.372;2023-12-22T15:02:53;9.90;99.90
12434;DHT22;6281;49.038;8.372;2023-12-22T15:05:21;9.90;99.90
12434;DHT22;6281;49.038;8.372;2023-12-22T15:07:49;9.80;99.90
12434;DHT22;6281;49.038;8.372;2023-12-22T15:10:17;9.80;99.90
12434;DHT22;6281;49.038;8.372;2023-12-22T15:12:43;9.70;99.90
12434;DHT22;6281;49.038;8.372;2023-12-22T15:15:10;9.60;99.90
12434;DHT22;6281;49.038;8.372;2023-12-22T15:17:37;9.70;99.90
12434;DHT22;6281;49.038;8.372;2023-12-22T15:20:05;9.80;99.90
12434;DHT22;6281;49.038;8.372;2023-12-22T15:22:35;9.80;99.90
12434;DHT22;6281;49.038;8.372;2023-12-22T15:25:02;9.80;99.90
12434;DHT22;6281;49.038;8.372;2023-12-22T15:27:29;9.90;99.90
12434;DHT22;6281;49.038;8.372;2023-12-22T15:29:58;10.00;99.90
12434;DHT22;6281;49.038;8.372;2023-12-22T15:32:25;9.90;99.90
12434;DHT22;6281;49.038;8.372;2023-12-22T15:34:52;9.90;99.90
12434;DHT22;6281;49.038;8.372;2023-12-22T15:37:18;10.00;99.90
12434;DHT22;6281;49.038;8.372;2023-12-22T15:39:47;10.00;99.90
12434;DHT22;6281;49.038;8.372;2023-12-22T15:42:14;10.00;99.90
12434;DHT22;6281;49.038;8.372;2023-12-22T15:44:41;9.90;99.90
12434;DHT22;6281;49.038;8.372;2023-12-22T15:47:08;9.90;99.90
12434;DHT22;6281;49.038;8.372;2023-12-22T15:49:37;9.90;99.90
12434;DHT22;6281;49.038;8.372;2023-12-22T15:52:05;10.00;99.90
12434;DHT22;6281;49.038;8.372;2023-12-22T15:54:33;9.90;99.90
12434;DHT22;6281;49.038;8.372;2023-12-22T15:57:02;9.90;99.90
12434;DHT22;6281;49.038;8.372;2023-12-22T15:59:28;10.00;99.90
12434;DHT22;6281;49.038;8.372;2023-12-22T16:01:55;10.00;99.90
12434;DHT22;6281;49.038;8.372;2023-12-22T16:04:22;10.00;99.90
12434;DHT22;6281;49.038;8.372;2023-12-22T16:06:49;10.00;99.90
12434;DHT22;6281;49.038;8.372;2023-12-22T16:09:16;10.00;99.90